createdAt,value
2017-08-21T00:00:15.927Z,6.93
2017-08-21T00:01:22.116Z,6.90
2017-08-21T00:02:27.947Z,6.25
2017-08-21T00:03:34.036Z,6.03
2017-08-21T00:04:39.923Z,6.50
2017-08-21T00:05:45.953Z,6.50
2017-08-21T00:06:52.014Z,6.85
2017-08-21T00:07:58.110Z,5.75
2017-08-21T00:09:03.415Z,6.97
2017-08-21T00:10:09.529Z,8.60
2017-08-21T00:11:15.383Z,6.40
2017-08-21T00:12:21.462Z,5.85
2017-08-21T00:13:28.216Z,9.48
2017-08-21T00:14:34.251Z,6.65
2017-08-21T00:15:40.342Z,6.82
2017-08-21T00:16:46.394Z,5.82
2017-08-21T00:17:52.417Z,6.45
2017-08-21T00:18:58.430Z,6.28
2017-08-21T00:20:04.451Z,5.97
2017-08-21T00:21:10.347Z,5.60
2017-08-21T00:22:16.405Z,7.25
2017-08-21T00:23:22.449Z,5.53
2017-08-21T00:24:28.490Z,6.60
2017-08-21T00:25:34.556Z,5.35
2017-08-21T00:26:40.618Z,6.10
2017-08-21T00:27:46.661Z,9.15
2017-08-21T00:28:53.580Z,6.37
2017-08-21T00:29:59.642Z,10.57
2017-08-21T00:31:05.335Z,7.20
2017-08-21T00:32:11.224Z,7.40
2017-08-21T00:33:17.312Z,5.93
2017-08-21T00:34:23.399Z,5.65
2017-08-21T00:35:29.477Z,5.47
2017-08-21T00:36:35.599Z,6.72
2017-08-21T00:37:41.660Z,5.60
2017-08-21T00:38:47.696Z,5.80
2017-08-21T00:39:53.761Z,5.97
2017-08-21T00:40:59.806Z,9.38
2017-08-21T00:42:05.869Z,6.03
2017-08-21T00:43:11.930Z,5.82
2017-08-21T00:44:17.944Z,5.47
2017-08-21T00:45:23.971Z,6.03
2017-08-21T00:46:30.009Z,5.18
2017-08-21T00:47:36.111Z,5.93
2017-08-21T00:48:41.607Z,6.40
2017-08-21T00:49:46.954Z,5.62
2017-08-21T00:50:52.612Z,6.28
2017-08-21T00:51:58.691Z,5.57
2017-08-21T00:53:04.745Z,5.70
2017-08-21T00:54:10.833Z,6.30
2017-08-21T00:55:16.857Z,7.30
2017-08-21T00:56:22.738Z,6.00
2017-08-21T00:57:28.840Z,8.07
2017-08-21T00:58:34.890Z,6.07
2017-08-21T00:59:40.940Z,6.30
2017-08-21T01:00:47.016Z,5.32
2017-08-21T01:01:52.871Z,5.62
2017-08-21T01:02:58.933Z,7.30
2017-08-21T01:04:04.654Z,6.05
2017-08-21T01:05:10.418Z,7.10
2017-08-21T01:06:16.466Z,6.07
2017-08-21T01:07:22.484Z,5.40
2017-08-21T01:08:28.547Z,5.72
2017-08-21T01:09:34.611Z,6.60
2017-08-21T01:10:40.714Z,7.28
2017-08-21T01:11:46.769Z,6.20
2017-08-21T01:12:52.890Z,6.75
2017-08-21T01:13:58.943Z,6.87
2017-08-21T01:15:04.775Z,6.75
2017-08-21T01:16:10.866Z,5.95
2017-08-21T01:17:16.940Z,6.07
2017-08-21T01:18:23.053Z,5.90
2017-08-21T01:19:29.109Z,6.50
2017-08-21T01:20:34.787Z,7.40
2017-08-21T01:21:40.533Z,7.12
2017-08-21T01:22:46.556Z,6.30
2017-08-21T01:23:52.639Z,6.78
2017-08-21T01:24:58.674Z,5.97
2017-08-21T01:26:04.752Z,7.35
2017-08-21T01:27:10.844Z,6.40
2017-08-21T01:28:16.909Z,5.68
2017-08-21T01:29:22.977Z,6.78
2017-08-21T01:30:28.828Z,5.95
2017-08-21T01:31:35.706Z,7.40
2017-08-21T01:32:47.727Z,7.93
2017-08-21T01:33:53.778Z,6.70
2017-08-21T01:34:59.808Z,6.10
2017-08-21T01:36:05.824Z,6.05
2017-08-21T01:37:11.890Z,6.50
2017-08-21T01:38:17.946Z,9.80
2017-08-21T01:39:24.046Z,6.07
2017-08-21T01:40:30.085Z,8.88
2017-08-21T01:41:36.137Z,7.25
2017-08-21T01:42:42.261Z,7.43
2017-08-21T01:43:48.342Z,9.20
2017-08-21T01:44:54.388Z,7.55
2017-08-21T01:46:00.407Z,7.43
2017-08-21T01:47:06.454Z,7.15
2017-08-21T01:48:12.541Z,6.70
2017-08-21T01:49:18.593Z,6.07
2017-08-21T01:50:24.643Z,6.85
2017-08-21T01:51:30.665Z,6.80
2017-08-21T01:52:40.158Z,7.12
2017-08-21T01:53:46.225Z,9.38
2017-08-21T01:54:52.282Z,7.07
2017-08-21T01:55:58.350Z,6.40
2017-08-21T01:57:03.998Z,6.43
2017-08-21T01:58:10.037Z,11.10
2017-08-21T01:59:15.921Z,6.00
2017-08-21T02:00:21.991Z,8.40
2017-08-21T02:01:27.853Z,8.13
2017-08-21T02:02:33.704Z,6.85
2017-08-21T02:03:39.774Z,7.50
2017-08-21T02:04:45.637Z,7.00
2017-08-21T02:05:51.677Z,7.43
2017-08-21T02:06:57.810Z,6.40
2017-08-21T02:08:03.842Z,6.20
2017-08-21T02:09:09.931Z,10.38
2017-08-21T02:10:15.898Z,6.25
2017-08-21T02:11:21.931Z,6.95
2017-08-21T02:12:27.990Z,7.05
2017-08-21T02:13:35.031Z,7.12
2017-08-21T02:14:41.057Z,7.00
2017-08-21T02:15:47.146Z,5.93
2017-08-21T02:16:53.169Z,6.93
2017-08-21T02:17:59.186Z,7.07
2017-08-21T02:19:05.274Z,7.43
2017-08-21T02:20:11.303Z,8.95
2017-08-21T02:21:17.366Z,5.72
2017-08-21T02:22:23.392Z,6.50
2017-08-21T02:23:29.398Z,6.18
2017-08-21T02:24:35.425Z,7.15
2017-08-21T02:25:41.493Z,7.00
2017-08-21T02:26:47.566Z,6.90
2017-08-21T02:27:53.581Z,8.35
2017-08-21T02:28:59.632Z,8.15
2017-08-21T02:30:05.701Z,6.35
2017-08-21T02:31:11.710Z,6.90
2017-08-21T02:32:17.780Z,7.20
2017-08-21T02:33:23.833Z,7.28
2017-08-21T02:34:29.880Z,7.10
2017-08-21T02:35:35.907Z,8.52
2017-08-21T02:36:41.937Z,6.45
2017-08-21T02:37:48.046Z,8.25
2017-08-21T02:38:53.881Z,7.03
2017-08-21T02:39:59.919Z,11.20
2017-08-21T02:41:05.957Z,7.60
2017-08-21T02:42:11.992Z,7.10
2017-08-21T02:43:18.089Z,6.60
2017-08-21T02:44:24.132Z,10.77
2017-08-21T02:45:30.171Z,6.32
2017-08-21T02:46:36.205Z,8.27
2017-08-21T02:47:42.263Z,7.30
2017-08-21T02:48:48.354Z,8.45
2017-08-21T02:49:54.408Z,7.87
2017-08-21T02:51:00.427Z,7.80
2017-08-21T02:52:06.508Z,8.05
2017-08-21T02:53:12.526Z,7.55
2017-08-21T02:54:18.581Z,8.82
2017-08-21T02:55:25.506Z,9.88
2017-08-21T02:56:31.540Z,7.62
2017-08-21T02:57:37.551Z,7.55
2017-08-21T02:58:43.588Z,8.27
2017-08-21T02:59:49.668Z,11.95
2017-08-21T03:00:55.752Z,10.55
2017-08-21T03:02:01.585Z,7.03
2017-08-21T03:03:07.725Z,8.02
2017-08-21T03:04:13.773Z,7.93
2017-08-21T03:05:19.893Z,7.28
2017-08-21T03:06:27.248Z,8.10
2017-08-21T03:07:34.372Z,7.50
2017-08-21T03:08:40.922Z,8.07
2017-08-21T03:09:46.982Z,8.73
2017-08-21T03:10:53.085Z,7.47
2017-08-21T03:11:59.128Z,7.40
2017-08-21T03:13:04.995Z,7.72
2017-08-21T03:14:11.052Z,9.18
2017-08-21T03:15:17.093Z,7.87
2017-08-21T03:16:23.137Z,7.32
2017-08-21T03:17:29.162Z,7.32
2017-08-21T03:18:35.199Z,9.02
2017-08-21T03:19:41.385Z,7.90
2017-08-21T03:20:47.439Z,8.55
2017-08-21T03:21:53.481Z,7.93
2017-08-21T03:22:59.536Z,8.48
2017-08-21T03:24:05.622Z,8.07
2017-08-21T03:25:17.757Z,9.57
2017-08-21T03:26:27.902Z,8.32
2017-08-21T03:27:33.993Z,8.82
2017-08-21T03:28:40.050Z,8.73
2017-08-21T03:29:46.083Z,18.15
2017-08-21T03:30:52.109Z,8.02
2017-08-21T03:31:58.163Z,12.65
2017-08-21T03:33:04.240Z,8.52
2017-08-21T03:34:10.297Z,9.25
2017-08-21T03:35:16.002Z,11.68
2017-08-21T03:36:25.551Z,8.18
2017-08-21T03:37:31.549Z,8.90
2017-08-21T03:38:37.646Z,8.73
2017-08-21T03:39:43.709Z,9.13
2017-08-21T03:40:49.756Z,11.18
2017-08-21T03:41:55.767Z,8.88
2017-08-21T03:43:01.805Z,8.60
2017-08-21T03:44:07.917Z,9.57
2017-08-21T03:45:13.931Z,9.23
2017-08-21T03:46:19.963Z,10.00
2017-08-21T03:47:26.014Z,9.50
2017-08-21T03:48:32.077Z,10.20
2017-08-21T03:49:38.135Z,9.38
2017-08-21T03:50:44.174Z,10.13
2017-08-21T03:51:50.200Z,9.85
2017-08-21T03:52:56.227Z,10.10
2017-08-21T03:54:02.257Z,9.43
2017-08-21T03:55:08.411Z,9.82
2017-08-21T03:56:14.434Z,10.45
2017-08-21T03:57:20.477Z,10.15
2017-08-21T03:58:26.532Z,10.90
2017-08-21T03:59:32.567Z,9.90
2017-08-21T04:00:38.628Z,10.73
2017-08-21T04:01:44.702Z,12.68
2017-08-21T04:02:50.750Z,9.55
2017-08-21T04:03:56.813Z,9.98
2017-08-21T04:05:02.845Z,10.30
2017-08-21T04:06:08.756Z,9.90
2017-08-21T04:07:14.806Z,12.23
2017-08-21T04:08:20.835Z,9.35
2017-08-21T04:09:26.868Z,8.88
2017-08-21T04:10:32.885Z,9.77
2017-08-21T04:11:39.006Z,9.32
2017-08-21T04:12:45.023Z,9.80
2017-08-21T04:13:51.109Z,13.98
2017-08-21T04:14:57.167Z,9.27
2017-08-21T04:16:03.210Z,10.73
2017-08-21T04:17:09.467Z,13.13
2017-08-21T04:18:15.498Z,9.38
2017-08-21T04:19:21.182Z,8.70
2017-08-21T04:20:27.229Z,10.73
2017-08-21T04:21:33.392Z,9.60
2017-08-21T04:22:39.466Z,10.13
2017-08-21T04:23:45.506Z,10.30
2017-08-21T04:24:51.526Z,9.65
2017-08-21T04:25:57.593Z,11.10
2017-08-21T04:27:03.696Z,9.38
2017-08-21T04:28:09.799Z,10.13
2017-08-21T04:29:16.109Z,11.12
2017-08-21T04:30:22.356Z,9.88
2017-08-21T04:31:28.404Z,8.63
2017-08-21T04:32:34.316Z,8.77
2017-08-21T04:33:40.642Z,10.10
2017-08-21T04:34:46.751Z,10.85
2017-08-21T04:35:52.783Z,9.48
2017-08-21T04:36:58.837Z,11.45
2017-08-21T04:38:12.277Z,10.77
2017-08-21T04:39:18.362Z,9.50
2017-08-21T04:40:24.564Z,9.60
2017-08-21T04:41:30.616Z,11.15
2017-08-21T04:42:36.669Z,9.82
2017-08-21T04:43:42.690Z,12.45
2017-08-21T04:44:48.798Z,13.38
2017-08-21T04:45:54.871Z,12.32
2017-08-21T04:47:03.074Z,9.50
2017-08-21T04:48:09.775Z,9.98
2017-08-21T04:49:16.076Z,8.90
2017-08-21T04:50:22.231Z,9.85
2017-08-21T04:51:29.984Z,11.73
2017-08-21T04:52:37.818Z,10.77
2017-08-21T04:53:43.885Z,11.75
2017-08-21T04:54:51.766Z,11.05
2017-08-21T04:55:58.595Z,10.60
2017-08-21T04:57:04.772Z,12.37
2017-08-21T04:58:10.813Z,12.95
2017-08-21T04:59:16.850Z,9.07
2017-08-21T05:00:22.548Z,16.00
2017-08-21T05:01:28.465Z,9.35
2017-08-21T05:02:34.493Z,10.05
2017-08-21T05:03:40.541Z,10.82
2017-08-21T05:04:46.570Z,8.80
2017-08-21T05:05:52.654Z,10.55
2017-08-21T05:06:58.752Z,9.68
2017-08-21T05:08:04.768Z,8.27
2017-08-21T05:09:10.809Z,12.57
2017-08-21T05:10:16.861Z,9.05
2017-08-21T05:11:22.880Z,8.75
2017-08-21T05:12:29.067Z,9.23
2017-08-21T05:13:35.091Z,7.93
2017-08-21T05:14:41.116Z,8.00
2017-08-21T05:15:47.165Z,9.48
2017-08-21T05:16:53.177Z,9.15
2017-08-21T05:17:59.233Z,8.77
2017-08-21T05:19:05.450Z,10.82
2017-08-21T05:20:11.484Z,9.18
2017-08-21T05:21:17.498Z,8.65
2017-08-21T05:22:23.516Z,10.65
2017-08-21T05:23:29.630Z,8.50
2017-08-21T05:24:35.681Z,11.23
2017-08-21T05:25:41.762Z,8.05
2017-08-21T05:26:47.915Z,9.40
2017-08-21T05:27:54.117Z,8.02
2017-08-21T05:29:00.208Z,9.27
2017-08-21T05:30:06.236Z,11.38
2017-08-21T05:31:12.289Z,8.93
2017-08-21T05:32:18.323Z,10.43
2017-08-21T05:33:24.368Z,9.00
2017-08-21T05:34:30.449Z,8.55
2017-08-21T05:35:36.507Z,7.95
2017-08-21T05:36:42.540Z,11.38
2017-08-21T05:37:48.586Z,14.55
2017-08-21T05:38:54.446Z,8.77
2017-08-21T05:40:07.214Z,8.25
2017-08-21T05:41:18.838Z,8.20
2017-08-21T05:42:24.873Z,10.02
2017-08-21T05:43:30.881Z,8.70
2017-08-21T05:44:36.955Z,8.98
2017-08-21T05:45:43.216Z,12.50
2017-08-21T05:46:49.286Z,9.27
2017-08-21T05:47:55.330Z,9.68
2017-08-21T05:49:01.416Z,8.05
2017-08-21T05:50:07.563Z,8.93
2017-08-21T05:51:13.586Z,10.25
2017-08-21T05:52:19.689Z,10.02
2017-08-21T05:53:25.727Z,8.85
2017-08-21T05:54:31.744Z,8.68
2017-08-21T05:55:37.828Z,11.12
2017-08-21T05:56:43.860Z,8.75
2017-08-21T05:57:49.898Z,8.88
2017-08-21T05:58:56.028Z,8.55
2017-08-21T06:00:01.878Z,8.52
2017-08-21T06:01:08.046Z,8.77
2017-08-21T06:02:14.291Z,8.95
2017-08-21T06:03:20.317Z,9.80
2017-08-21T06:04:29.734Z,8.30
2017-08-21T06:05:37.010Z,12.43
2017-08-21T06:06:43.398Z,9.15
2017-08-21T06:07:49.929Z,7.70
2017-08-21T06:08:56.376Z,7.95
2017-08-21T06:10:02.560Z,7.70
2017-08-21T06:11:08.865Z,7.93
2017-08-21T06:12:15.470Z,11.75
2017-08-21T06:13:21.840Z,11.50
2017-08-21T06:14:28.030Z,9.10
2017-08-21T06:15:34.209Z,7.90
2017-08-21T06:16:40.591Z,9.57
2017-08-21T06:17:46.839Z,8.35
2017-08-21T06:18:52.934Z,12.27
2017-08-21T06:19:59.344Z,9.93
2017-08-21T06:21:05.872Z,11.88
2017-08-21T06:22:15.342Z,10.10
2017-08-21T06:23:25.625Z,10.98
2017-08-21T06:24:31.899Z,8.65
2017-08-21T06:25:38.586Z,12.02
2017-08-21T06:26:45.164Z,8.80
2017-08-21T06:27:55.724Z,8.98
2017-08-21T06:29:02.204Z,10.48
2017-08-21T06:30:08.599Z,10.57
2017-08-21T06:31:15.088Z,9.82
2017-08-21T06:32:22.121Z,8.50
2017-08-21T06:33:28.558Z,9.38
2017-08-21T06:34:34.847Z,10.88
2017-08-21T06:35:41.255Z,8.77
2017-08-21T06:36:47.422Z,8.48
2017-08-21T06:37:53.831Z,12.45
2017-08-21T06:39:00.263Z,7.97
2017-08-21T06:40:06.510Z,9.75
2017-08-21T06:41:12.746Z,10.00
2017-08-21T06:42:19.313Z,8.38
2017-08-21T06:43:25.732Z,7.10
2017-08-21T06:44:32.074Z,7.70
2017-08-21T06:45:38.324Z,7.12
2017-08-21T06:46:44.666Z,9.50
2017-08-21T06:47:51.104Z,7.93
2017-08-21T06:48:57.530Z,9.30
2017-08-21T06:50:03.881Z,7.90
2017-08-21T06:51:10.203Z,8.88
2017-08-21T06:52:16.612Z,8.05
2017-08-21T06:53:23.391Z,8.13
2017-08-21T06:54:29.661Z,8.40
2017-08-21T06:55:36.016Z,9.50
2017-08-21T06:56:42.415Z,7.50
2017-08-21T06:57:48.746Z,6.37
2017-08-21T06:58:54.963Z,6.60
2017-08-21T07:00:01.355Z,8.82
2017-08-21T07:01:08.589Z,8.65
2017-08-21T07:02:16.400Z,7.25
2017-08-21T07:03:24.072Z,5.90
2017-08-21T07:04:33.103Z,6.62
2017-08-21T07:05:39.623Z,6.62
2017-08-21T07:06:46.511Z,5.70
2017-08-21T07:07:54.002Z,6.57
2017-08-21T07:09:01.733Z,6.30
2017-08-21T07:10:08.958Z,8.18
2017-08-21T07:11:15.657Z,5.72
2017-08-21T07:12:22.328Z,5.70
2017-08-21T07:13:28.805Z,8.68
2017-08-21T07:14:35.062Z,6.70
2017-08-21T07:15:41.102Z,6.60
2017-08-21T07:16:47.138Z,10.40
2017-08-21T07:17:54.504Z,5.72
2017-08-21T07:19:01.530Z,6.60
2017-08-21T07:20:08.133Z,7.00
2017-08-21T07:21:14.696Z,5.43
2017-08-21T07:22:20.774Z,6.20
2017-08-21T07:23:26.868Z,5.55
2017-08-21T07:24:33.172Z,6.25
2017-08-21T07:25:41.289Z,7.32
2017-08-21T07:26:47.927Z,7.18
2017-08-21T07:27:55.534Z,10.57
2017-08-21T07:29:02.294Z,6.62
2017-08-21T07:30:10.774Z,5.70
2017-08-21T07:31:18.876Z,6.82
2017-08-21T07:32:25.029Z,5.47
2017-08-21T07:33:31.420Z,7.55
2017-08-21T07:34:37.542Z,6.68
2017-08-21T07:35:43.663Z,9.88
2017-08-21T07:36:49.735Z,7.50
2017-08-21T07:37:56.249Z,8.75
2017-08-21T07:39:02.480Z,4.40
2017-08-21T07:40:09.038Z,9.27
2017-08-21T07:41:15.178Z,6.68
2017-08-21T07:42:21.307Z,5.80
2017-08-21T07:43:27.823Z,5.85
2017-08-21T07:44:34.255Z,8.43
2017-08-21T07:45:41.037Z,4.35
2017-08-21T07:46:47.164Z,4.60
2017-08-21T07:47:53.499Z,4.07
2017-08-21T07:49:00.116Z,7.12
2017-08-21T07:50:06.270Z,5.30
2017-08-21T07:51:12.798Z,4.45
2017-08-21T07:52:18.939Z,5.35
2017-08-21T07:53:24.995Z,3.92
2017-08-21T07:54:31.005Z,3.92
2017-08-21T07:55:37.053Z,3.47
2017-08-21T07:56:44.130Z,3.58
2017-08-21T07:57:50.315Z,3.17
2017-08-21T07:58:57.293Z,4.22
2017-08-21T08:00:06.606Z,4.40
2017-08-21T08:01:14.855Z,4.57
2017-08-21T08:02:21.791Z,3.10
2017-08-21T08:03:28.985Z,2.80
2017-08-21T08:04:35.845Z,4.68
2017-08-21T08:05:44.613Z,3.83
2017-08-21T08:06:51.816Z,3.95
2017-08-21T08:07:58.615Z,4.20
2017-08-21T08:09:05.565Z,3.83
2017-08-21T08:10:14.255Z,3.67
2017-08-21T08:11:22.596Z,3.87
2017-08-21T08:12:31.000Z,3.15
2017-08-21T08:13:37.593Z,4.12
2017-08-21T08:14:44.013Z,5.35
2017-08-21T08:15:52.180Z,6.78
2017-08-21T08:16:59.474Z,2.08
2017-08-21T08:18:06.098Z,8.05
2017-08-21T08:19:13.683Z,4.15
2017-08-21T08:20:20.459Z,4.43
2017-08-21T08:21:26.896Z,3.90
2017-08-21T08:22:35.002Z,4.72
2017-08-21T08:23:43.521Z,4.93
2017-08-21T08:24:50.212Z,6.12
2017-08-21T08:25:58.435Z,3.62
2017-08-21T08:27:05.000Z,4.90
2017-08-21T08:28:12.900Z,6.05
2017-08-21T08:29:20.145Z,5.50
2017-08-21T08:30:27.412Z,2.90
2017-08-21T08:31:36.927Z,4.05
2017-08-21T08:32:43.529Z,5.65
2017-08-21T08:33:52.110Z,6.47
2017-08-21T08:34:59.882Z,4.28
2017-08-21T08:36:08.623Z,5.12
2017-08-21T08:37:15.472Z,3.60
2017-08-21T08:38:23.335Z,3.00
2017-08-21T08:39:30.154Z,4.57
2017-08-21T08:40:38.542Z,3.00
2017-08-21T08:41:46.328Z,6.43
2017-08-21T08:42:55.215Z,3.58
2017-08-21T08:44:02.334Z,3.17
2017-08-21T08:45:10.663Z,5.65
2017-08-21T08:46:18.769Z,2.85
2017-08-21T08:47:25.249Z,2.58
2017-08-21T08:48:32.098Z,3.17
2017-08-21T08:49:39.290Z,6.45
2017-08-21T08:50:49.918Z,3.53
2017-08-21T08:51:56.739Z,4.53
2017-08-21T08:53:03.475Z,2.40
2017-08-21T08:54:11.396Z,4.05
2017-08-21T08:55:18.189Z,3.72
2017-08-21T08:56:25.251Z,2.90
2017-08-21T08:57:32.169Z,5.55
2017-08-21T08:58:39.782Z,5.70
2017-08-21T08:59:48.187Z,3.80
2017-08-21T09:00:55.635Z,6.12
2017-08-21T09:02:03.583Z,3.00
2017-08-21T09:03:11.797Z,3.35
2017-08-21T09:04:19.298Z,3.97
2017-08-21T09:05:26.140Z,3.12
2017-08-21T09:06:34.194Z,2.90
2017-08-21T09:07:41.466Z,3.75
2017-08-21T09:08:49.321Z,2.60
2017-08-21T09:09:56.521Z,4.20
2017-08-21T09:11:03.294Z,3.05
2017-08-21T09:12:11.115Z,3.53
2017-08-21T09:13:18.885Z,3.15
2017-08-21T09:14:26.868Z,3.12
2017-08-21T09:15:33.605Z,3.35
2017-08-21T09:16:40.945Z,3.37
2017-08-21T09:17:49.482Z,3.05
2017-08-21T09:18:56.884Z,6.93
2017-08-21T09:20:05.330Z,3.35
2017-08-21T09:21:12.785Z,4.60
2017-08-21T09:22:20.048Z,3.17
2017-08-21T09:23:27.508Z,3.05
2017-08-21T09:24:36.126Z,3.25
2017-08-21T09:25:43.086Z,3.05
2017-08-21T09:26:50.528Z,2.85
2017-08-21T09:27:56.645Z,3.40
2017-08-21T09:29:02.682Z,4.03
2017-08-21T09:30:10.916Z,4.72
2017-08-21T09:31:19.659Z,4.20
2017-08-21T09:32:29.001Z,3.95
2017-08-21T09:33:37.512Z,4.15
2017-08-21T09:34:45.350Z,2.97
2017-08-21T09:35:54.513Z,2.97
2017-08-21T09:37:03.410Z,3.72
2017-08-21T09:38:12.566Z,3.20
2017-08-21T09:39:21.372Z,3.05
2017-08-21T09:40:30.283Z,3.85
2017-08-21T09:41:38.647Z,3.85
2017-08-21T09:42:48.402Z,3.58
2017-08-21T09:43:58.076Z,3.53
2017-08-21T09:45:05.927Z,3.30
2017-08-21T09:46:15.919Z,3.85
2017-08-21T09:47:24.159Z,2.28
2017-08-21T09:48:33.082Z,3.83
2017-08-21T09:49:41.566Z,4.18
2017-08-21T09:50:50.703Z,3.78
2017-08-21T09:51:58.353Z,4.12
2017-08-21T09:53:08.880Z,2.80
2017-08-21T09:54:17.602Z,4.85
2017-08-21T09:55:25.656Z,4.15
2017-08-21T09:56:32.295Z,4.30
2017-08-21T09:57:38.345Z,2.55
2017-08-21T09:58:44.423Z,5.78
2017-08-21T09:59:50.544Z,2.75
2017-08-21T10:00:56.578Z,3.83
2017-08-21T10:02:02.666Z,2.97
2017-08-21T10:03:08.754Z,3.03
2017-08-21T10:04:14.792Z,2.25
2017-08-21T10:05:20.858Z,2.67
2017-08-21T10:06:26.904Z,3.45
2017-08-21T10:07:32.935Z,2.65
2017-08-21T10:08:39.048Z,2.97
2017-08-21T10:09:44.893Z,3.10
2017-08-21T10:10:50.944Z,2.55
2017-08-21T10:11:57.793Z,2.03
2017-08-21T10:13:03.867Z,3.67
2017-08-21T10:14:09.912Z,2.70
2017-08-21T10:15:16.083Z,2.08
2017-08-21T10:16:22.162Z,3.78
2017-08-21T10:17:28.178Z,3.67
2017-08-21T10:18:34.226Z,3.97
2017-08-21T10:19:40.267Z,2.40
2017-08-21T10:20:46.370Z,2.17
2017-08-21T10:21:52.436Z,2.10
2017-08-21T10:22:58.503Z,4.05
2017-08-21T10:24:04.561Z,2.05
2017-08-21T10:25:10.614Z,2.17
2017-08-21T10:26:16.737Z,2.35
2017-08-21T10:27:22.796Z,2.03
2017-08-21T10:28:28.910Z,2.55
2017-08-21T10:29:34.969Z,2.65
2017-08-21T10:30:41.033Z,3.25
2017-08-21T10:31:47.192Z,4.65
2017-08-21T10:32:53.244Z,2.47
2017-08-21T10:33:59.272Z,2.40
2017-08-21T10:35:05.351Z,2.65
2017-08-21T10:36:11.366Z,3.75
2017-08-21T10:37:17.435Z,3.60
2017-08-21T10:38:23.481Z,2.50
2017-08-21T10:39:29.573Z,2.55
2017-08-21T10:40:35.661Z,1.83
2017-08-21T10:41:41.742Z,2.30
2017-08-21T10:42:47.831Z,2.85
2017-08-21T10:43:53.882Z,1.85
2017-08-21T10:44:59.941Z,2.50
2017-08-21T10:46:06.046Z,3.67
2017-08-21T10:47:12.118Z,2.00
2017-08-21T10:48:18.059Z,2.75
2017-08-21T10:49:24.133Z,3.75
2017-08-21T10:50:29.995Z,3.50
2017-08-21T10:51:35.816Z,2.03
2017-08-21T10:52:41.910Z,1.95
2017-08-21T10:53:48.006Z,1.77
2017-08-21T10:54:54.101Z,1.92
2017-08-21T10:56:00.195Z,1.50
2017-08-21T10:57:06.094Z,1.90
2017-08-21T10:58:13.468Z,2.17
2017-08-21T10:59:21.334Z,2.95
2017-08-21T11:00:28.457Z,1.80
2017-08-21T11:01:35.629Z,4.32
2017-08-21T11:02:42.884Z,2.87
2017-08-21T11:03:50.059Z,2.33
2017-08-21T11:04:57.261Z,2.92
2017-08-21T11:06:03.910Z,1.85
2017-08-21T11:07:10.948Z,2.20
2017-08-21T11:08:18.134Z,2.05
2017-08-21T11:09:24.696Z,2.75
2017-08-21T11:10:31.269Z,1.77
2017-08-21T11:11:38.199Z,2.87
2017-08-21T11:12:46.478Z,1.83
2017-08-21T11:13:52.904Z,2.05
2017-08-21T11:15:01.077Z,2.85
2017-08-21T11:16:10.469Z,2.17
2017-08-21T11:17:18.054Z,2.92
2017-08-21T11:18:24.783Z,2.20
2017-08-21T11:19:30.965Z,4.40
2017-08-21T11:20:37.535Z,2.90
2017-08-21T11:21:43.401Z,2.12
2017-08-21T11:22:49.441Z,5.95
2017-08-21T11:23:55.359Z,1.60
2017-08-21T11:25:01.422Z,2.37
2017-08-21T11:26:07.514Z,2.37
2017-08-21T11:27:13.637Z,3.30
2017-08-21T11:28:19.705Z,2.50
2017-08-21T11:29:25.775Z,3.60
2017-08-21T11:30:31.805Z,4.45
2017-08-21T11:31:37.837Z,3.65
2017-08-21T11:32:43.971Z,2.30
2017-08-21T11:33:52.418Z,3.33
2017-08-21T11:35:04.093Z,1.55
2017-08-21T11:36:12.780Z,3.75
2017-08-21T11:37:21.779Z,1.33
2017-08-21T11:38:30.775Z,3.05
2017-08-21T11:39:37.754Z,1.98
2017-08-21T11:40:45.412Z,2.95
2017-08-21T11:41:54.000Z,3.80
2017-08-21T11:43:02.993Z,1.90
2017-08-21T11:44:12.740Z,1.60
2017-08-21T11:45:22.102Z,1.20
2017-08-21T11:46:30.058Z,1.73
2017-08-21T11:47:38.141Z,1.77
2017-08-21T11:48:46.542Z,2.03
2017-08-21T11:49:53.437Z,1.87
2017-08-21T11:51:00.568Z,2.53
2017-08-21T11:52:09.313Z,3.90
2017-08-21T11:53:16.837Z,1.50
2017-08-21T11:54:23.682Z,1.92
2017-08-21T11:55:31.078Z,1.40
2017-08-21T11:56:38.980Z,1.60
2017-08-21T11:57:46.955Z,2.25
2017-08-21T11:58:55.588Z,2.00
2017-08-21T12:00:05.318Z,4.43
2017-08-21T12:01:14.126Z,1.40
2017-08-21T12:02:20.378Z,2.45
2017-08-21T12:03:29.201Z,2.20
2017-08-21T12:04:38.720Z,1.58
2017-08-21T12:05:46.199Z,3.37
2017-08-21T12:06:54.725Z,2.40
2017-08-21T12:08:02.905Z,2.87
2017-08-21T12:09:12.579Z,5.25
2017-08-21T12:10:19.799Z,2.90
2017-08-21T12:11:30.426Z,2.00
2017-08-21T12:12:38.145Z,2.55
2017-08-21T12:13:46.054Z,1.77
2017-08-21T12:14:54.405Z,2.15
2017-08-21T12:16:00.469Z,2.95
2017-08-21T12:17:09.559Z,2.72
2017-08-21T12:18:17.651Z,2.05
2017-08-21T12:19:25.159Z,1.87
2017-08-21T12:20:32.566Z,1.55
2017-08-21T12:21:38.621Z,1.83
2017-08-21T12:22:46.509Z,2.20
2017-08-21T12:23:52.817Z,1.60
2017-08-21T12:24:58.852Z,1.50
2017-08-21T12:26:05.027Z,1.50
2017-08-21T12:27:13.125Z,2.35
2017-08-21T12:28:20.015Z,2.50
2017-08-21T12:29:26.148Z,1.80
2017-08-21T12:30:33.393Z,1.42
2017-08-21T12:31:41.462Z,1.98
2017-08-21T12:32:47.878Z,2.12
2017-08-21T12:33:55.536Z,2.53
2017-08-21T12:35:02.471Z,1.98
2017-08-21T12:36:08.613Z,3.17
2017-08-21T12:37:16.302Z,1.23
2017-08-21T12:38:26.102Z,1.62
2017-08-21T12:39:35.171Z,4.50
2017-08-21T12:40:42.222Z,1.85
2017-08-21T12:41:50.047Z,2.50
2017-08-21T12:42:58.746Z,2.40
2017-08-21T12:44:04.798Z,2.28
2017-08-21T12:45:13.446Z,1.83
2017-08-21T12:46:20.821Z,2.37
2017-08-21T12:47:28.812Z,1.20
2017-08-21T12:48:37.030Z,1.20
2017-08-21T12:49:44.977Z,1.60
2017-08-21T12:50:53.157Z,1.50
2017-08-21T12:52:05.215Z,1.65
2017-08-21T12:53:14.626Z,3.47
2017-08-21T12:54:23.447Z,2.30
2017-08-21T12:55:33.099Z,1.30
2017-08-21T12:56:41.762Z,2.28
2017-08-21T12:57:49.857Z,1.37
2017-08-21T12:58:59.317Z,1.90
2017-08-21T13:00:07.564Z,1.33
2017-08-21T13:01:17.235Z,1.60
2017-08-21T13:02:27.443Z,1.23
2017-08-21T13:03:37.154Z,3.08
2017-08-21T13:04:45.469Z,2.25
2017-08-21T13:05:54.293Z,1.30
2017-08-21T13:07:02.722Z,2.05
2017-08-21T13:08:11.486Z,2.75
2017-08-21T13:09:20.178Z,1.40
2017-08-21T13:10:28.680Z,1.92
2017-08-21T13:11:35.433Z,2.20
2017-08-21T13:12:41.509Z,3.00
2017-08-21T13:13:47.553Z,3.08
2017-08-21T13:14:54.108Z,1.25
2017-08-21T13:16:03.374Z,1.42
2017-08-21T13:17:11.661Z,1.62
2017-08-21T13:18:19.598Z,2.95
2017-08-21T13:19:26.756Z,2.03
2017-08-21T13:20:35.270Z,1.95
2017-08-21T13:21:42.668Z,2.25
2017-08-21T13:22:50.805Z,1.42
2017-08-21T13:23:58.452Z,2.28
2017-08-21T13:25:07.081Z,2.55
2017-08-21T13:26:13.801Z,3.40
2017-08-21T13:27:21.579Z,1.60
2017-08-21T13:28:28.404Z,1.52
2017-08-21T13:29:37.692Z,2.97
2017-08-21T13:30:45.547Z,1.83
2017-08-21T13:31:54.926Z,2.30
2017-08-21T13:33:01.812Z,1.50
2017-08-21T13:34:10.665Z,2.00
2017-08-21T13:35:19.840Z,2.42
2017-08-21T13:36:26.582Z,1.87
2017-08-21T13:37:32.742Z,1.85
2017-08-21T13:38:41.010Z,3.12
2017-08-21T13:39:49.448Z,1.62
2017-08-21T13:40:57.066Z,1.45
2017-08-21T13:42:03.110Z,2.00
2017-08-21T13:43:09.301Z,4.50
2017-08-21T13:44:15.340Z,2.03
2017-08-21T13:45:21.427Z,1.98
2017-08-21T13:46:27.488Z,1.95
2017-08-21T13:47:33.585Z,2.55
2017-08-21T13:48:39.682Z,3.28
2017-08-21T13:49:45.342Z,2.00
2017-08-21T13:50:51.060Z,2.87
2017-08-21T13:51:56.901Z,2.03
2017-08-21T13:53:02.737Z,3.17
2017-08-21T13:54:08.907Z,1.77
2017-08-21T13:55:14.928Z,4.25
2017-08-21T13:56:20.951Z,2.85
2017-08-21T13:57:26.991Z,1.98
2017-08-21T13:58:33.030Z,4.45
2017-08-21T13:59:39.122Z,3.03
2017-08-21T14:00:45.151Z,2.10
2017-08-21T14:01:51.185Z,3.10
2017-08-21T14:02:57.010Z,2.00
2017-08-21T14:04:03.078Z,1.30
2017-08-21T14:05:09.247Z,3.00
2017-08-21T14:06:15.273Z,2.97
2017-08-21T14:07:21.313Z,3.40
2017-08-21T14:08:27.384Z,2.30
2017-08-21T14:09:33.409Z,2.00
2017-08-21T14:10:39.490Z,2.20
2017-08-21T14:11:45.540Z,1.98
2017-08-21T14:12:51.589Z,2.47
2017-08-21T14:13:57.675Z,2.67
2017-08-21T14:15:04.132Z,1.60
2017-08-21T14:16:10.244Z,1.95
2017-08-21T14:17:16.552Z,3.90
2017-08-21T14:18:22.598Z,1.60
2017-08-21T14:19:29.520Z,1.58
2017-08-21T14:20:35.643Z,2.20
2017-08-21T14:21:41.834Z,1.20
2017-08-21T14:22:48.476Z,2.20
2017-08-21T14:23:54.539Z,3.47
2017-08-21T14:25:00.569Z,2.30
2017-08-21T14:26:06.647Z,2.95
2017-08-21T14:27:12.781Z,2.45
2017-08-21T14:28:18.823Z,3.12
2017-08-21T14:29:24.843Z,2.67
2017-08-21T14:30:30.968Z,2.70
2017-08-21T14:31:36.998Z,2.00
2017-08-21T14:32:44.142Z,2.55
2017-08-21T14:33:50.987Z,1.45
2017-08-21T14:34:58.394Z,1.98
2017-08-21T14:36:05.720Z,2.00
2017-08-21T14:37:12.844Z,3.03
2017-08-21T14:38:20.377Z,2.80
2017-08-21T14:39:27.465Z,2.75
2017-08-21T14:40:34.870Z,4.05
2017-08-21T14:41:42.244Z,2.65
2017-08-21T14:42:48.806Z,2.00
2017-08-21T14:43:54.854Z,1.80
2017-08-21T14:45:00.713Z,1.45